Time;durP1;ratioP1;P1;durP2;ratioP2;P2;SDS_P1;SDS_P2;PMS_P1;PMS_P2;Temp;Humidity;BMP_temperature;BMP_pressure;BME280_temperature;BME280_humidity;BME280_pressure;Samples;Min_cycle;Max_cycle;Signal;HPM_P1;HPM_P2
2023/07/10 00:02:17;;;;;;;31.23;24.58;;;;;;;;;;4982386;28;20423;-65
2023/07/10 00:04:44;;;;;;;30.93;26.60;;;;;;;;;;4980241;28;20467;-65
2023/07/10 00:07:13;;;;;;;46.05;32.35;;;;;;;;;;4979792;28;20423;-65
2023/07/10 00:09:40;;;;;;;43.85;32.15;;;;;;;;;;4980713;28;20427;-65
2023/07/10 00:12:11;;;;;;;44.97;33.58;;;;;;;;;;4980198;28;20416;-65
2023/07/10 00:14:38;;;;;;;43.45;34.00;;;;;;;;;;4970633;28;20472;-65
2023/07/10 00:17:06;;;;;;;46.23;35.20;;;;;;;;;;4970855;28;20428;-64
2023/07/10 00:19:33;;;;;;;48.92;38.28;;;;;;;;;;4970858;28;20447;-64
2023/07/10 00:22:00;;;;;;;45.13;36.42;;;;;;;;;;4970453;28;20938;-65
2023/07/10 00:24:29;;;;;;;48.28;37.75;;;;;;;;;;4981532;28;20434;-64
2023/07/10 00:26:56;;;;;;;43.00;35.67;;;;;;;;;;4985336;28;20445;-65
2023/07/10 00:29:25;;;;;;;50.00;38.33;;;;;;;;;;4981053;28;20426;-65
2023/07/10 00:31:52;;;;;;;47.55;36.42;;;;;;;;;;4982119;28;21008;-64
2023/07/10 00:34:24;;;;;;;45.85;34.88;;;;;;;;;;4983710;28;20909;-65
2023/07/10 00:36:52;;;;;;;39.20;32.10;;;;;;;;;;4983142;28;20624;-65
2023/07/10 00:39:21;;;;;;;38.75;32.53;;;;;;;;;;4983593;28;20810;-65
2023/07/10 00:41:50;;;;;;;46.33;35.78;;;;;;;;;;4985826;28;20430;-64
2023/07/10 00:44:18;;;;;;;44.50;33.63;;;;;;;;;;4983188;28;20436;-66
2023/07/10 00:46:47;;;;;;;44.80;35.38;;;;;;;;;;4982249;28;20828;-65
2023/07/10 00:49:19;;;;;;;46.47;36.97;;;;;;;;;;4982772;28;20466;-64
2023/07/10 00:51:52;;;;;;;46.07;36.80;;;;;;;;;;4985228;28;20473;-66
2023/07/10 00:54:23;;;;;;;49.88;37.42;;;;;;;;;;4987864;28;20469;-65
2023/07/10 00:56:53;;;;;;;55.00;40.88;;;;;;;;;;4985070;28;20946;-65
2023/07/10 00:59:22;;;;;;;49.88;38.00;;;;;;;;;;4985686;28;20425;-65
2023/07/10 01:02:15;;;;;;;45.15;37.05;;;;;;;;;;4988423;28;20485;-65
2023/07/10 01:04:43;;;;;;;64.25;44.53;;;;;;;;;;4981814;28;20494;-66
2023/07/10 01:07:11;;;;;;;65.00;45.78;;;;;;;;;;4986172;28;20423;-66
2023/07/10 01:09:39;;;;;;;65.05;45.75;;;;;;;;;;4987460;28;20422;-66
2023/07/10 01:12:08;;;;;;;66.45;48.17;;;;;;;;;;4981995;28;20955;-66
2023/07/10 01:14:35;;;;;;;63.03;44.83;;;;;;;;;;4983339;28;20422;-65
2023/07/10 01:17:02;;;;;;;59.88;43.80;;;;;;;;;;4984990;28;20472;-66
2023/07/10 01:19:30;;;;;;;61.53;44.22;;;;;;;;;;4981988;28;20476;-65
2023/07/10 01:21:58;;;;;;;58.25;42.45;;;;;;;;;;4982438;28;20750;-70
2023/07/10 01:24:25;;;;;;;55.92;40.25;;;;;;;;;;4985016;28;20431;-66
2023/07/10 01:26:53;;;;;;;49.47;37.28;;;;;;;;;;4985762;28;20542;-66
2023/07/10 01:29:22;;;;;;;57.75;38.45;;;;;;;;;;4984482;28;20475;-65
2023/07/10 01:31:51;;;;;;;56.15;41.05;;;;;;;;;;4983177;28;20428;-66
2023/07/10 01:34:19;;;;;;;55.15;39.25;;;;;;;;;;4984808;28;20471;-65
2023/07/10 01:36:47;;;;;;;49.03;37.33;;;;;;;;;;4984330;28;20484;-65
2023/07/10 01:39:29;;;;;;;50.55;36.10;;;;;;;;;;4982673;28;20462;-65
2023/07/10 01:41:56;;;;;;;46.03;34.97;;;;;;;;;;4983545;28;20436;-66
2023/07/10 01:44:24;;;;;;;47.83;35.05;;;;;;;;;;4982259;28;20431;-66
2023/07/10 01:46:51;;;;;;;49.58;35.30;;;;;;;;;;4987637;28;20427;-65
2023/07/10 01:49:20;;;;;;;47.15;35.17;;;;;;;;;;4987006;28;20424;-65
2023/07/10 01:51:47;;;;;;;46.55;34.03;;;;;;;;;;4984994;28;20485;-65
2023/07/10 01:54:15;;;;;;;42.03;33.75;;;;;;;;;;4986583;28;20823;-65
2023/07/10 01:56:44;;;;;;;44.47;34.63;;;;;;;;;;4988448;28;20450;-65
2023/07/10 01:59:11;;;;;;;47.08;34.85;;;;;;;;;;4984540;28;20422;-66
2023/07/10 02:01:38;;;;;;;46.40;34.45;;;;;;;;;;4982203;28;20420;-65
2023/07/10 02:04:05;;;;;;;41.67;31.65;;;;;;;;;;4986523;28;20979;-64
2023/07/10 02:06:33;;;;;;;43.72;33.17;;;;;;;;;;4981518;28;20511;-65
2023/07/10 02:09:00;;;;;;;42.63;32.97;;;;;;;;;;4982657;28;20978;-65
2023/07/10 02:11:27;;;;;;;38.38;29.48;;;;;;;;;;4983719;28;20423;-66
2023/07/10 02:13:56;;;;;;;43.22;31.35;;;;;;;;;;4981701;28;20420;-66
2023/07/10 02:16:23;;;;;;;45.38;31.08;;;;;;;;;;4981134;28;20434;-65
2023/07/10 02:18:50;;;;;;;35.75;29.42;;;;;;;;;;4984850;28;20819;-66
2023/07/10 02:21:17;;;;;;;34.28;27.42;;;;;;;;;;4980894;28;20769;-65
2023/07/10 02:23:47;;;;;;;38.05;28.55;;;;;;;;;;4981608;28;20825;-65
2023/07/10 02:26:14;;;;;;;37.17;31.63;;;;;;;;;;4987544;28;20913;-66
2023/07/10 02:28:41;;;;;;;34.07;27.37;;;;;;;;;;4980041;28;20801;-65
2023/07/10 02:31:10;;;;;;;32.50;25.95;;;;;;;;;;4986557;28;20898;-65
2023/07/10 02:33:37;;;;;;;31.02;24.55;;;;;;;;;;4982119;28;20485;-65
2023/07/10 02:36:05;;;;;;;29.83;24.83;;;;;;;;;;4985324;28;20426;-65
2023/07/10 02:38:32;;;;;;;30.00;23.08;;;;;;;;;;4983104;28;20426;-65
2023/07/10 02:41:00;;;;;;;32.30;25.15;;;;;;;;;;4983676;28;20415;-65
2023/07/10 02:43:27;;;;;;;31.58;24.83;;;;;;;;;;4983485;28;20815;-65
2023/07/10 02:45:54;;;;;;;37.60;29.20;;;;;;;;;;4985368;28;20459;-65
2023/07/10 02:48:22;;;;;;;40.67;29.95;;;;;;;;;;4983255;28;20915;-66
2023/07/10 02:50:49;;;;;;;40.05;31.90;;;;;;;;;;4983132;28;20422;-65
2023/07/10 02:53:16;;;;;;;41.88;32.70;;;;;;;;;;4981866;28;20424;-65
2023/07/10 02:55:43;;;;;;;44.28;35.03;;;;;;;;;;4989616;28;20426;-65
2023/07/10 02:58:10;;;;;;;43.85;33.42;;;;;;;;;;4985615;28;20507;-65
2023/07/10 03:00:37;;;;;;;43.67;34.00;;;;;;;;;;4983249;28;20485;-65
2023/07/10 03:03:04;;;;;;;40.30;32.65;;;19.40;99.90;;;;;;4986347;28;20424;-65
2023/07/10 03:05:32;;;;;;;43.13;32.55;;;;;;;;;;4978111;28;20434;-65
2023/07/10 03:07:59;;;;;;;42.53;32.63;;;;;;;;;;4983530;28;20482;-65
2023/07/10 03:10:26;;;;;;;43.00;33.90;;;;;;;;;;4984470;28;20427;-65
2023/07/10 03:12:53;;;;;;;41.75;33.38;;;;;;;;;;4983181;28;20476;-66
2023/07/10 03:15:20;;;;;;;43.58;32.45;;;;;;;;;;4984203;28;20773;-66
2023/07/10 03:17:48;;;;;;;41.85;32.67;;;;;;;;;;4981698;28;20414;-65
2023/07/10 03:20:15;;;;;;;42.63;34.25;;;;;;;;;;4981821;28;20426;-66
2023/07/10 03:22:43;;;;;;;49.65;37.92;;;;;;;;;;4980149;28;21034;-66
2023/07/10 03:25:10;;;;;;;55.10;40.50;;;;;;;;;;4984165;28;20511;-65
2023/07/10 03:27:37;;;;;;;56.27;40.33;;;;;;;;;;4983625;28;20431;-65
2023/07/10 03:30:05;;;;;;;55.58;39.92;;;;;;;;;;4980550;28;20422;-65
2023/07/10 03:32:32;;;;;;;62.28;42.40;;;;;;;;;;4982141;28;20879;-65
2023/07/10 03:34:59;;;;;;;56.08;40.03;;;;;;;;;;4981635;28;20489;-65
2023/07/10 03:37:26;;;;;;;59.58;40.53;;;;;;;;;;4982033;28;20422;-65
2023/07/10 03:39:54;;;;;;;63.00;41.90;;;;;;;;;;4979724;28;20420;-65
2023/07/10 03:42:21;;;;;;;71.28;44.75;;;;;;;;;;4983339;28;20773;-65
2023/07/10 03:44:48;;;;;;;66.85;43.28;;;;;;;;;;4980119;28;20482;-64
2023/07/10 03:47:15;;;;;;;70.53;44.83;;;;;;;;;;4981499;28;20418;-64
2023/07/10 03:49:42;;;;;;;69.25;44.13;;;;;;;;;;4981867;28;20896;-64
2023/07/10 03:52:09;;;;;;;73.10;46.17;;;;;;;;;;4979510;28;20487;-64
2023/07/10 03:54:37;;;;;;;75.05;48.13;;;;;;;;;;4985401;28;20430;-64
2023/07/10 03:57:05;;;;;;;68.97;43.55;;;;;;;;;;4985068;28;20425;-64
2023/07/10 03:59:32;;;;;;;64.25;41.42;;;;;;;;;;4982560;28;20422;-64
2023/07/10 04:01:59;;;;;;;63.13;41.22;;;;;;;;;;4978054;28;20885;-64
2023/07/10 04:04:26;;;;;;;69.78;44.20;;;;;;;;;;4984167;28;20474;-64
2023/07/10 04:06:53;;;;;;;65.30;41.63;;;;;;;;;;4984052;28;20433;-64
2023/07/10 04:09:20;;;;;;;57.65;39.60;;;;;;;;;;4988405;28;20431;-64
2023/07/10 04:11:47;;;;;;;62.38;40.00;;;;;;;;;;4984559;28;20426;-64
2023/07/10 04:14:16;;;;;;;62.73;40.50;;;;;;;;;;4985827;28;20426;-64
2023/07/10 04:16:43;;;;;;;59.47;39.67;;;;;;;;;;4985304;28;20939;-66
2023/07/10 04:19:10;;;;;;;65.38;41.45;;;;;;;;;;4985818;28;20426;-65
2023/07/10 04:21:37;;;;;;;59.20;38.58;;;;;;;;;;4983276;28;20475;-66
2023/07/10 04:24:05;;;;;;;57.50;38.30;;;;;;;;;;4988346;28;20810;-64
2023/07/10 04:26:32;;;;;;;54.20;37.60;;;;;;;;;;4991345;28;20947;-64
2023/07/10 04:29:00;;;;;;;60.58;40.35;;;;;;;;;;4986586;28;20502;-64
2023/07/10 04:31:28;;;;;;;66.93;42.58;;;;;;;;;;4983243;28;20487;-64
2023/07/10 04:33:55;;;;;;;66.63;43.15;;;;;;;;;;4987823;28;20426;-63
2023/07/10 04:36:22;;;;;;;63.25;43.58;;;;;;;;;;4988059;28;20431;-64
2023/07/10 04:38:49;;;;;;;63.60;43.63;;;;;;;;;;4985130;28;20420;-64
2023/07/10 04:41:18;;;;;;;62.88;42.75;;;;;;;;;;4988226;28;20889;-66
2023/07/10 04:43:45;;;;;;;56.60;38.83;;;;;;;;;;4985289;28;20505;-65
2023/07/10 04:46:13;;;;;;;49.58;38.13;;;;;;;;;;4984043;28;20440;-64
2023/07/10 04:48:43;;;;;;;52.40;37.53;;;;;;;;;;4988325;28;20445;-64
2023/07/10 04:51:10;;;;;;;53.33;38.67;;;;;;;;;;4981610;28;20414;-65
2023/07/10 04:53:38;;;;;;;56.13;40.23;;;;;;;;;;4985061;28;20505;-64
2023/07/10 04:56:06;;;;;;;55.53;39.17;;;;;;;;;;4989922;28;20753;-65
2023/07/10 04:58:46;;;;;;;53.35;39.47;;;;;;;;;;4988734;28;20476;-64
2023/07/10 05:01:13;;;;;;;58.85;40.88;;;;;;;;;;4987748;28;20424;-64
2023/07/10 05:03:41;;;;;;;60.28;42.17;;;;;;;;;;4987866;28;20438;-65
2023/07/10 05:06:08;;;;;;;56.90;41.65;;;;;;;;;;4984792;28;20464;-66
2023/07/10 05:08:35;;;;;;;58.45;41.90;;;;;;;;;;4971973;28;20428;-66
2023/07/10 05:11:02;;;;;;;55.47;40.23;;;;;;;;;;4986714;28;20487;-66
2023/07/10 05:13:30;;;;;;;56.45;39.33;;;;;;;;;;4990966;28;21009;-65
2023/07/10 05:15:57;;;;;;;52.05;36.72;;;;;;;;;;4993718;28;20431;-66
2023/07/10 05:18:25;;;;;;;52.53;37.28;;;;;;;;;;4987863;28;20782;-66
2023/07/10 05:20:54;;;;;;;52.53;38.05;;;;;;;;;;4986932;28;20511;-66
2023/07/10 05:23:21;;;;;;;51.72;36.35;;;;;;;;;;4992361;28;20447;-66
2023/07/10 05:25:55;;;;;;;50.77;35.67;;;;;;;;;;4993055;28;20895;-66
2023/07/10 05:28:22;;;;;;;53.85;35.90;;;;;;;;;;4988306;28;20533;-66
2023/07/10 05:30:49;;;;;;;53.47;35.13;;;;;;;;;;4984684;28;20420;-63
2023/07/10 05:33:16;;;;;;;48.75;35.00;;;;;;;;;;4985825;28;20426;-64
2023/07/10 05:35:49;;;;;;;46.60;34.33;;;;;;;;;;4985717;28;20580;-65
2023/07/10 05:38:17;;;;;;;45.50;34.53;;;;;;;;;;4973946;28;20467;-65
2023/07/10 05:40:44;;;;;;;48.60;35.92;;;;;;;;;;4973391;28;20920;-65
2023/07/10 05:43:11;;;;;;;46.42;34.42;;;;;;;;;;4983145;28;20430;-64
2023/07/10 05:45:38;;;;;;;49.45;33.60;;;;;;;;;;4985197;28;20437;-65
2023/07/10 05:48:06;;;;;;;38.97;30.77;;;;;;;;;;4980007;28;20427;-65
2023/07/10 05:50:33;;;;;;;45.45;31.83;;;;;;;;;;4983334;28;20414;-66
2023/07/10 05:53:01;;;;;;;45.08;31.38;;;;;;;;;;4985220;28;20501;-66
2023/07/10 05:55:29;;;;;;;36.95;27.45;;;;;;;;;;4983346;28;20412;-66
2023/07/10 05:57:56;;;;;;;34.20;25.85;;;;;;;;;;4986381;28;20457;-68
2023/07/10 06:00:23;;;;;;;27.00;22.35;;;;;;;;;;4981923;28;20419;-69
2023/07/10 06:02:50;;;;;;;25.80;21.83;;;;;;;;;;4985883;28;20419;-66
2023/07/10 06:05:17;;;;;;;26.92;19.55;;;;;;;;;;4985309;28;20527;-67
2023/07/10 06:07:44;;;;;;;26.63;20.83;;;;;;;;;;4982340;28;20807;-66
2023/07/10 06:10:11;;;;;;;25.33;21.03;;;;;;;;;;4980051;28;20461;-66
2023/07/10 06:12:41;;;;;;;29.00;22.38;;;;;;;;;;4984103;28;20478;-64
2023/07/10 06:15:08;;;;;;;30.38;24.08;;;;;;;;;;4983814;28;20446;-67
2023/07/10 06:17:35;;;;;;;33.28;26.98;;;;;;;;;;4982816;28;20914;-63
2023/07/10 06:20:02;;;;;;;27.60;21.52;;;;;;;;;;4985591;28;20430;-63
2023/07/10 06:22:30;;;;;;;26.88;21.55;;;;;;;;;;4988815;28;20926;-68
2023/07/10 06:24:57;;;;;;;29.35;20.80;;;;;;;;;;4985356;28;20477;-64
2023/07/10 06:27:24;;;;;;;24.45;19.63;;;;;;;;;;4987562;28;20440;-67
2023/07/10 06:29:52;;;;;;;19.95;17.33;;;;;;;;;;4986577;28;20422;-65
2023/07/10 06:32:19;;;;;;;19.70;16.05;;;;;;;;;;4985881;28;20419;-64
2023/07/10 06:34:46;;;;;;;19.92;15.52;;;;;;;;;;4985377;28;20422;-63
2023/07/10 06:37:13;;;;;;;21.45;15.25;;;;;;;;;;4984582;28;20943;-60
2023/07/10 06:39:40;;;;;;;17.75;13.82;;;;;;;;;;4989933;28;20476;-69
2023/07/10 06:42:07;;;;;;;18.23;14.67;;;;;;;;;;4985582;28;20915;-66
2023/07/10 06:44:34;;;;;;;21.52;14.73;;;;;;;;;;4984308;28;20480;-66
2023/07/10 06:47:03;;;;;;;19.83;14.15;;;;;;;;;;4978686;28;20847;-65
2023/07/10 06:49:30;;;;;;;18.50;13.40;;;;;;;;;;4979821;28;20434;-64
2023/07/10 06:51:58;;;;;;;14.48;11.35;;;;;;;;;;4988298;28;20542;-65
2023/07/10 06:54:25;;;;;;;15.15;11.38;;;;;;;;;;4985239;28;20973;-64
2023/07/10 06:56:52;;;;;;;14.75;11.10;;;;;;;;;;4985662;28;20419;-63
2023/07/10 06:59:22;;;;;;;16.38;12.02;;;;;;;;;;4985965;28;20420;-63
2023/07/10 07:01:49;;;;;;;17.10;11.90;;;;;;;;;;4985860;28;20449;-66
2023/07/10 07:04:17;;;;;;;17.65;12.57;;;;;;;;;;4984940;28;20439;-63
2023/07/10 07:06:44;;;;;;;16.95;11.25;;;;;;;;;;4992317;28;20430;-65
2023/07/10 07:09:13;;;;;;;13.60;10.80;;;;;;;;;;4987224;28;20418;-65
2023/07/10 07:11:40;;;;;;;16.48;12.20;;;;;;;;;;4987839;28;20480;-66
2023/07/10 07:14:07;;;;;;;14.30;9.63;;;;;;;;;;4981990;28;20446;-64
2023/07/10 07:16:34;;;;;;;15.30;8.65;;;;;;;;;;4987286;28;20422;-65
2023/07/10 07:19:01;;;;;;;14.95;9.60;;;;;;;;;;4983675;28;20484;-65
2023/07/10 07:21:29;;;;;;;13.00;9.00;;;;;;;;;;4982585;28;20503;-64
2023/07/10 07:23:56;;;;;;;13.20;8.88;;;;;;;;;;4983292;28;21408;-63
2023/07/10 07:26:25;;;;;;;10.70;7.80;;;;;;;;;;4984964;28;20440;-63
2023/07/10 07:28:52;;;;;;;12.68;7.95;;;;;;;;;;4983859;28;20475;-64
2023/07/10 07:31:19;;;;;;;12.40;7.78;;;;;;;;;;4984312;28;20419;-67
2023/07/10 07:33:46;;;;;;;13.55;8.50;;;;;;;;;;4982379;28;20423;-67
2023/07/10 07:36:13;;;;;;;13.82;8.20;;;;;;;;;;4983910;28;20424;-69
2023/07/10 07:38:41;;;;;;;12.02;8.85;;;;;;;;;;4982696;28;20428;-69
2023/07/10 07:41:08;;;;;;;13.38;9.05;;;;;;;;;;4979458;28;20832;-69
2023/07/10 07:43:35;;;;;;;10.43;8.02;;;;;;;;;;4983738;28;20426;-65
2023/07/10 07:46:03;;;;;;;13.70;8.87;;;;;;;;;;4984084;28;20489;-65
2023/07/10 07:48:30;;;;;;;10.63;8.85;;;;;;;;;;4982578;28;20514;-64
2023/07/10 07:50:58;;;;;;;16.13;9.88;;;;;;;;;;4981130;28;20416;-64
2023/07/10 07:53:25;;;;;;;14.60;10.38;;;;;;;;;;4989369;28;21049;-67
2023/07/10 07:55:53;;;;;;;12.40;10.23;;;;;;;;;;4988405;28;20796;-64
2023/07/10 07:58:21;;;;;;;14.20;9.57;;;;;;;;;;4984426;28;20453;-67
2023/07/10 08:00:49;;;;;;;13.88;9.45;;;;;;;;;;4982580;28;20422;-67
2023/07/10 08:03:16;;;;;;;13.02;9.48;;;;;;;;;;4979675;28;20428;-66
2023/07/10 08:05:43;;;;;;;16.13;10.68;;;;;;;;;;4981488;28;20486;-65
2023/07/10 08:08:11;;;;;;;13.63;9.90;;;;;;;;;;4977437;28;20418;-67
2023/07/10 08:10:41;;;;;;;13.32;9.73;;;;;;;;;;4980491;28;20883;-67
2023/07/10 08:13:10;;;;;;;16.57;10.10;;;;;;;;;;4981242;28;20507;-70
2023/07/10 08:15:37;;;;;;;15.52;10.73;;;;;;;;;;4982297;28;20422;-65
2023/07/10 08:18:04;;;;;;;14.30;11.50;;;;;;;;;;4980376;28;20486;-66
2023/07/10 08:20:31;;;;;;;15.57;11.05;;;;;;;;;;4978209;28;20430;-68
2023/07/10 08:22:58;;;;;;;15.25;11.98;;;;;;;;;;4985441;28;20426;-66
2023/07/10 08:25:25;;;;;;;15.95;10.30;;;;;;;;;;4983230;28;20428;-66
2023/07/10 08:27:53;;;;;;;17.05;11.82;;;;;;;;;;4982575;28;20438;-65
2023/07/10 08:30:21;;;;;;;14.73;11.27;;;;;;;;;;4975662;28;20984;-66
2023/07/10 08:32:48;;;;;;;13.20;10.70;;;;;;;;;;4981324;28;20426;-64
2023/07/10 08:35:15;;;;;;;15.38;10.98;;;;;;;;;;4982002;28;20420;-70
2023/07/10 08:37:42;;;;;;;13.55;9.05;;;;;;;;;;4980517;28;20432;-64
2023/07/10 08:40:15;;;;;;;11.73;8.30;;;;;;;;;;4980199;28;20434;-66
2023/07/10 08:42:43;;;;;;;12.27;7.47;;;;;;;;;;4982025;28;20427;-64
2023/07/10 08:45:13;;;;;;;11.98;6.60;;;;;;;;;;4980234;28;20431;-66
2023/07/10 08:47:44;;;;;;;9.25;5.20;;;;;;;;;;4980962;28;20434;-66
2023/07/10 08:50:13;;;;;;;9.93;4.88;;;;;;;;;;4979611;28;20431;-65
2023/07/10 08:52:45;;;;;;;8.98;5.28;;;;;;;;;;4989372;28;20838;-66
2023/07/10 08:55:13;;;;;;;9.70;4.83;;;;;;;;;;4985679;28;20474;-65
2023/07/10 08:57:43;;;;;;;8.73;4.18;;;;;;;;;;4988052;28;20888;-65
2023/07/10 09:00:11;;;;;;;6.95;3.67;;;;;;;;;;4981327;28;20509;-63
2023/07/10 09:02:42;;;;;;;6.43;3.38;;;;;;;;;;4979831;28;20426;-66
2023/07/10 09:05:13;;;;;;;7.30;3.58;;;;;;;;;;4984711;28;20460;-66
2023/07/10 09:07:43;;;;;;;7.13;3.40;;;;;;;;;;4982380;28;20431;-67
2023/07/10 09:10:14;;;;;;;5.00;3.17;;;;;;;;;;4983097;28;20424;-65
2023/07/10 09:12:42;;;;;;;7.88;3.22;;;;;;;;;;4980691;28;20418;-72
2023/07/10 09:15:13;;;;;;;6.28;3.60;;;;;;;;;;4987403;28;21236;-70
2023/07/10 09:17:46;;;;;;;9.70;4.10;;;;;;;;;;4983972;28;20430;-66
2023/07/10 09:20:15;;;;;;;8.00;4.20;;;;;;;;;;4985333;28;20424;-66
2023/07/10 09:22:45;;;;;;;7.50;3.87;;;;;;;;;;4985789;28;20919;-67
2023/07/10 09:25:13;;;;;;;7.72;3.90;;;;;;;;;;4987619;28;20422;-67
2023/07/10 09:27:42;;;;;;;6.00;3.78;;;;;;;;;;4988591;28;20480;-65
2023/07/10 09:30:16;;;;;;;6.32;3.95;;;;;;;;;;4985886;28;20471;-70
2023/07/10 09:32:43;;;;;;;6.70;3.22;;;;;;;;;;4984005;28;20426;-69
2023/07/10 09:35:10;;;;;;;7.05;3.10;;;;;;;;;;4980955;28;20945;-72
2023/07/10 09:37:39;;;;;;;6.90;3.20;;;;;;;;;;4978101;28;20418;-66
2023/07/10 09:40:20;;;;;;;6.27;3.10;;;;;;;;;;4988141;28;20423;-65
2023/07/10 09:42:47;;;;;;;5.13;2.55;;;;;;;;;;4983535;28;20418;-65
2023/07/10 09:45:16;;;;;;;3.92;2.30;;;;;;;;;;4981767;28;20416;-65
2023/07/10 09:47:50;;;;;;;4.03;2.53;;;;;;;;;;4980888;28;20436;-65
2023/07/10 09:50:19;;;;;;;4.82;2.80;;;;;;;;;;4985481;28;20430;-68
2023/07/10 09:52:53;;;;;;;4.72;2.83;;;;;;;;;;4987769;28;20769;-68
2023/07/10 09:55:20;;;;;;;5.93;2.85;;;;;;;;;;4987754;28;20867;-68
2023/07/10 09:57:51;;;;;;;6.70;3.20;;;;;;;;;;4985178;28;20434;-68
2023/07/10 10:00:19;;;;;;;6.55;3.95;;;;;;;;;;4983895;28;21127;-64
2023/07/10 10:02:47;;;;;;;7.95;4.35;;;;;;;;;;4986448;28;20429;-66
2023/07/10 10:05:17;;;;;;;9.20;3.60;;;;;;;;;;4983089;28;20434;-65
2023/07/10 10:07:46;;;;;;;5.07;2.97;;;;;;;;;;4985734;28;20437;-66
2023/07/10 10:10:21;;;;;;;8.52;2.50;;;;;;;;;;4986730;28;20427;-68
2023/07/10 10:12:51;;;;;;;6.33;2.70;;;;;;;;;;4988853;28;20823;-68
2023/07/10 10:15:21;;;;;;;6.80;3.08;;;;;;;;;;4985754;28;20412;-71
2023/07/10 10:17:49;;;;;;;6.25;3.40;;;;;;;;;;4988818;28;20852;-71
2023/07/10 10:20:19;;;;;;;7.00;3.05;;;;;;;;;;4985077;28;20909;-70
2023/07/10 10:22:46;;;;;;;6.15;2.90;;;;;;;;;;4975520;28;20458;-69
2023/07/10 10:25:15;;;;;;;4.93;2.58;;;;;;;;;;4987971;28;20765;-66
2023/07/10 10:27:47;;;;;;;6.57;2.35;;;;;;;;;;4986288;28;20544;-65
2023/07/10 10:30:22;;;;;;;5.13;2.72;;;;;;;;;;4983503;28;20422;-66
2023/07/10 10:32:52;;;;;;;3.57;2.10;;;;;;;;;;4981416;28;20484;-65
2023/07/10 10:35:25;;;;;;;4.45;2.25;;;;;;;;;;4977933;28;20423;-71
2023/07/10 10:37:59;;;;;;;4.53;2.40;;;;;;;;;;4984668;28;20541;-66
2023/07/10 10:40:30;;;;;;;5.67;1.90;;;;;;;;;;4971956;28;20424;-67
2023/07/10 10:43:05;;;;;;;5.87;2.23;;;;;;;;;;4972748;28;20412;-64
2023/07/10 10:45:33;;;;;;;5.28;2.17;;;;;;;;;;4984368;28;20737;-67
2023/07/10 10:48:09;;;;;;;4.50;2.03;;;;;;;;;;4982801;28;20445;-71
2023/07/10 10:50:54;;;;;;;5.22;1.83;;;;;;;;;;4983557;28;20418;-66
2023/07/10 10:53:27;;;;;;;4.18;1.88;;;;;;;;;;4982392;28;20428;-65
2023/07/10 10:55:59;;;;;;;5.18;2.00;;;;;;;;;;4985476;28;20831;-70
2023/07/10 10:58:38;;;;;;;4.00;1.70;;;;;;;;;;4985698;28;20488;-68
2023/07/10 11:01:16;;;;;;;4.43;1.97;;;;;;;;;;4981222;28;20777;-66
2023/07/10 11:03:45;;;;;;;4.03;1.95;;;;;;;;;;4982076;28;20427;-68
2023/07/10 11:06:31;;;;;;;7.05;2.10;;;;;;;;;;4982928;28;20488;-66
2023/07/10 11:09:00;;;;;;;4.35;2.20;;;;;;;;;;4981162;28;20502;-66
2023/07/10 11:11:30;;;;;;;4.78;2.08;;;;;;;;;;4984730;28;20928;-65
2023/07/10 11:13:59;;;;;;;4.47;1.90;;;;;;;;;;4982413;28;20880;-65
2023/07/10 11:16:27;;;;;;;5.40;1.90;;;;;;;;;;4984767;28;20433;-66
2023/07/10 11:18:54;;;;;;;4.57;1.90;;;;;;;;;;4978280;28;20423;-64
2023/07/10 11:21:23;;;;;;;4.18;1.90;;;;;;;;;;4984829;28;20422;-67
2023/07/10 11:23:50;;;;;;;5.25;2.08;;;;;;;;;;4980812;28;20439;-66
2023/07/10 11:26:19;;;;;;;4.20;2.00;;;;;;;;;;4985403;28;20427;-65
2023/07/10 11:28:50;;;;;;;4.78;2.40;;;;;;;;;;4982947;28;20437;-63
2023/07/10 11:31:24;;;;;;;7.07;2.40;;;;;;;;;;4983127;28;20422;-64
2023/07/10 11:33:52;;;;;;;4.97;2.20;;;;;;;;;;4986805;28;20426;-66
2023/07/10 11:36:20;;;;;;;4.88;2.10;;;;;;;;;;4983041;28;20434;-65
2023/07/10 11:38:57;;;;;;;4.10;1.70;;;;;;;;;;4983022;28;20962;-65
2023/07/10 11:41:26;;;;;;;3.67;1.90;;;;;;;;;;4982775;28;20428;-65
2023/07/10 11:43:53;;;;;;;5.00;2.00;;;;;;;;;;4983890;28;20426;-66
2023/07/10 11:46:25;;;;;;;4.20;1.92;;;;;;;;;;4984635;28;20418;-68
2023/07/10 11:49:10;;;;;;;5.03;1.83;;;;;;;;;;4984310;28;20493;-68
2023/07/10 11:51:39;;;;;;;5.35;2.08;;;;;;;;;;4983667;28;20430;-68
2023/07/10 11:54:25;;;;;;;3.55;1.85;;;;;;;;;;4983745;28;20418;-71
2023/07/10 11:57:02;;;;;;;4.28;1.80;;;;;;;;;;4986375;28;20418;-65
2023/07/10 11:59:29;;;;;;;6.63;2.10;;;;;;;;;;4984180;28;20445;-67
2023/07/10 12:01:58;;;;;;;3.60;1.73;;;;;;;;;;4979939;28;20645;-66
2023/07/10 12:04:27;;;;;;;5.22;2.00;;;;;;;;;;4978003;28;20447;-65
2023/07/10 12:06:56;;;;;;;5.05;1.60;;;;;;;;;;4978312;28;20506;-69
2023/07/10 12:09:23;;;;;;;5.85;1.60;;;;;;;;;;4982235;28;20495;-67
2023/07/10 12:11:56;;;;;;;4.43;1.90;;;;;;;;;;4981591;28;20859;-66
2023/07/10 12:14:23;;;;;;;4.63;1.90;;;;;;;;;;4977379;28;20598;-68
2023/07/10 12:16:52;;;;;;;3.37;1.57;;;;;;;;;;4975708;28;20427;-70
2023/07/10 12:19:26;;;;;;;4.73;1.80;;;;;;;;;;4980476;28;20433;-66
2023/07/10 12:21:53;;;;;;;4.68;2.13;;;;;;;;;;4984263;28;20422;-65
2023/07/10 12:24:20;;;;;;;5.13;2.05;;;;;;;;;;4982724;28;20927;-65
2023/07/10 12:26:51;;;;;;;3.53;1.80;;;;;;;;;;4990106;28;20434;-64
2023/07/10 12:29:18;;;;;;;4.60;1.80;;;;;;;;;;4989349;28;20436;-66
2023/07/10 12:31:46;;;;;;;3.95;1.60;;;;;;;;;;4986694;28;20887;-66
2023/07/10 12:34:19;;;;;;;5.22;1.40;;;;;;;;;;4986542;28;20423;-67
2023/07/10 12:36:50;;;;;;;4.43;1.70;;;;;;;;;;4984936;28;20430;-66
2023/07/10 12:39:17;;;;;;;4.57;1.38;;;;;;;;;;4988532;28;20470;-70
2023/07/10 12:41:45;;;;;;;5.25;1.60;;;;;;;;;;4989724;28;20434;-67
2023/07/10 12:44:17;;;;;;;4.18;1.63;;;;;;;;;;4983779;28;20506;-66
2023/07/10 12:46:44;;;;;;;4.65;1.50;;;;;;;;;;4982142;28;20478;-68
2023/07/10 12:49:13;;;;;;;4.93;1.50;;;;;;;;;;4981467;28;20841;-66
2023/07/10 12:51:42;;;;;;;3.58;1.50;;;;;;;;;;4985626;28;20426;-67
2023/07/10 12:54:17;;;;;;;7.28;1.80;;;;;;;;;;4984516;28;20437;-66
2023/07/10 12:56:45;;;;;;;4.35;1.70;;;;;;;;;;4985958;28;20422;-67
2023/07/10 12:59:17;;;;;;;3.25;1.80;;;;;;;;;;4985650;28;20426;-67
2023/07/10 13:01:48;;;;;;;5.80;1.50;;;;;;;;;;4987188;28;20898;-66
2023/07/10 13:04:19;;;;;;;3.72;1.50;;;;;;;;;;4988169;28;20493;-65
2023/07/10 13:06:47;;;;;;;5.03;1.70;;;;;;;;;;4987062;28;20501;-65
2023/07/10 13:09:22;;;;;;;5.60;2.00;;;;;;;;;;4984778;28;20792;-65
2023/07/10 13:11:49;;;;;;;4.45;1.45;;;;;;;;;;4982115;28;20965;-66
2023/07/10 13:14:23;;;;;;;4.22;1.80;;;;;;;;;;4986921;28;20428;-66
2023/07/10 13:16:50;;;;;;;4.25;1.60;;;;;;;;;;4982391;28;20424;-66
2023/07/10 13:19:17;;;;;;;3.70;1.50;;;;;;;;;;4984880;28;20418;-66
2023/07/10 13:21:44;;;;;;;3.15;1.60;;;;;;;;;;4982144;28;20972;-66
2023/07/10 13:24:11;;;;;;;3.90;1.48;;;;;;;;;;4983011;28;20427;-66
2023/07/10 13:26:40;;;;;;;3.57;1.63;;;;;;;;;;4987918;28;20426;-65
2023/07/10 13:29:11;;;;;;;3.03;1.48;;;;;;;;;;4985326;28;20430;-65
2023/07/10 13:31:38;;;;;;;4.38;1.70;;;;;;;;;;4982844;28;20424;-66
2023/07/10 13:34:05;;;;;;;5.03;1.70;;;;;;;;;;4982269;28;20789;-65
2023/07/10 13:36:33;;;;;;;5.18;1.92;;;;;;;;;;4984160;28;20428;-66
2023/07/10 13:39:00;;;;;;;4.43;1.75;;;;;;;;;;4981009;28;20892;-66
2023/07/10 13:41:29;;;;;;;3.70;1.50;;;;;;;;;;4981167;28;20994;-65
2023/07/10 13:43:57;;;;;;;6.82;2.00;;;;;;;;;;4983378;28;20430;-65
2023/07/10 13:46:25;;;;;;;3.67;1.70;;;;;;;;;;4982613;28;20435;-66
2023/07/10 13:48:53;;;;;;;4.35;1.77;;;;;;;;;;4980738;28;20941;-67
2023/07/10 13:51:21;;;;;;;4.83;1.87;;;;;;;;;;4981891;28;20505;-67
2023/07/10 13:53:49;;;;;;;3.92;1.70;;;;;;;;;;4982593;28;20898;-67
2023/07/10 13:56:19;;;;;;;3.88;1.70;;;;;;;;;;4987147;28;20484;-67
2023/07/10 13:58:46;;;;;;;5.07;1.77;;;;;;;;;;4984185;28;20500;-67
2023/07/10 14:01:15;;;;;;;6.27;1.80;;;;;;;;;;4980941;28;20427;-66
2023/07/10 14:03:43;;;;;;;3.53;1.80;;;;;;;;;;4982227;28;20420;-65
2023/07/10 14:06:27;;;;;;;6.35;1.90;;;;;;;;;;4989324;28;20494;-66
2023/07/10 14:08:55;;;;;;;4.70;1.83;;;;;;;;;;4972746;28;20498;-65
2023/07/10 14:11:23;;;;;;;5.90;1.70;;;;;;;;;;4977687;28;20427;-65
2023/07/10 14:13:50;;;;;;;4.77;2.10;;;;;;;;;;4983821;28;20894;-66
2023/07/10 14:16:20;;;;;;;5.50;1.88;;;;;;;;;;4983544;28;20428;-65
2023/07/10 14:18:47;;;;;;;5.75;2.08;;;;;;;;;;4982276;28;20457;-64
2023/07/10 14:21:14;;;;;;;4.07;1.85;;;;;;;;;;4980754;28;20916;-65
2023/07/10 14:23:42;;;;;;;5.90;1.83;;;;;;;;;;4981381;28;20428;-66
2023/07/10 14:26:11;;;;;;;6.30;1.98;;;;;;;;;;4988069;28;21007;-71
2023/07/10 14:28:38;;;;;;;6.55;2.25;;;;;;;;;;4978878;28;20925;-71
2023/07/10 14:31:05;;;;;;;5.10;1.93;;;;;;;;;;4971789;28;20510;-72
2023/07/10 14:33:33;;;;;;;3.50;1.90;;;;;;;;;;4971869;28;20822;-65
2023/07/10 14:36:00;;;;;;;4.38;1.83;;;;;;;;;;4977101;28;20422;-69
2023/07/10 14:38:28;;;;;;;5.30;2.05;;;;;;;;;;4981392;28;20420;-68